LYBETNCM

Guest
Details From LYBE - Belgrade
To TNCM - St Maarten - Princess Juliana Intl
Flight Number -
Tags Generated
Created
Modified
Stats Distance 4,372 nm / 8,097 km
Max Altitude 0 ft / 0 m
Waypoints 8
Social Downloads 2
Likes 0
Share VATSIM

Download

Looking for another format? Having issues loading an existing format? Contact us
Advertisement - Login to hide

Notes

Generated

Route

LYBE GOLUN GHE01 ARKOX NB LOTEE MNOLO TNCM

ID Type Via Altitude Latitude Longitude Leg Dist Tot Dist Heading (true) Name
O LYBE APT - 0 ft / 0 m 44.82652˚ 20.29097˚ - 0 nm - -
GOLUN FIX - 0 ft / 0 m 45.26472˚ 15.04444˚ 224 nm 224 nm 279° / 275° -
GHE01 FIX - 0 ft / 0 m 45.45254˚ 10.26061˚ 202 nm 426 nm 275° / 271° -
ARKOX FIX - 0 ft / 0 m 45.44000˚ 5.30750˚ 208 nm 634 nm 272° / 268° -
NB NDB - 0 ft / 0 m 45.14750˚ -0.54992˚ 248 nm 883 nm 268° / 264° BORDEAUX NDB
LOTEE FIX - 0 ft / 0 m 44.65876˚ -5.83665˚ 226 nm 1109 nm 264° / 261° -
MNOLO FIX - 0 ft / 0 m 18.34556˚ -62.80211˚ 3236 nm 4346 nm 260° / 228° -
O TNCM APT - 0 ft / 0 m 18.03937˚ -63.11961˚ 25 nm 4372 nm 225° / 225° -

Altitude Profile

Advertisement - Login to hide

Weather


0- 5 10 15 20 25 30 35+ Temperature / ° C

Clouds and Precipitation
Forecast for 2017-12-17 12:00 UTC. Updated an hour ago

Ground ~20,000 ft ~40,000 ft Winds

LYBE

Details ICAO LYBE (BEG)
Name Belgrade
Region Serbia and Montenegro
Timezone Europe/Belgrade (UTC+1.0)
Stats Elevation 335 ft / 102 m (AMSL)
Location 44.818429° 20.309211°
Runways 1
Magnetic Variation 4.672° E

METAR

LYBE 171200Z 29011KT 7000 FEW010 BKN033 02/00 Q1016 NOSIG

Decode

TAF

TAF LYBE 171100Z 1712/1812 28008KT 5000 BR SCT006 BKN040 TX03/1713Z TNM01/1806Z TEMPO 1712/1718 3000 BKN006 BKN033 BECMG 1718/1720 2000 BKN003 TEMPO 1803/1807 0800 FZFG BKN002 BECMG 1809/1811 5000 BKN008

Decode

Departure Runways

ID Width Length Bearing (true) Bearing (mag) Surface Threshold Offset Overrun Length
12 148 ft / 45 m 11,138 ft / 3,395 m 122.00° 117.33° Asphalt 1,000 ft / 305 m 0 ft / 0 m
30 148 ft / 45 m 11,138 ft / 3,395 m 302.03° 297.36° Asphalt 1,312 ft / 400 m 0 ft / 0 m

TNCM

Details ICAO TNCM (SXM)
Name St Maarten - Princess Juliana Intl
Region Caribbean Netherlands, Aruba, Curaçao, Sint Maarten
Timezone Unknown (UTC+0.0)
Stats Elevation 12 ft / 4 m (AMSL)
Location 18.040889° -63.108974°
Runways 1
Magnetic Variation 14.325° W

METAR

TNCM 171200Z 04014KT 9999 FEW018 25/22 Q1017 A3004 NOSIG RMK SHRA NW

Decode

TAF

TAF TNCM 171141Z 1712/1812 04012KT P6SM VCSH SCT016 SCT035 TEMPO 1712/1714 -SHRA BKN020 FM171400 06015G22KT P6SM VCSH SCT018 SCT050 FM172300 07012KT P6SM SCT022

Decode

Destination Runways

ID Width Length Bearing (true) Bearing (mag) Surface Threshold Offset Overrun Length
10 148 ft / 45 m 7,464 ft / 2,275 m 81.43° 95.76° Asphalt 0 ft / 0 m 151 ft / 46 m
28 148 ft / 45 m 7,464 ft / 2,275 m 261.44° 275.77° Asphalt 397 ft / 121 m 0 ft / 0 m

Popular Alternatives